< < Back
Terminal Aerodrome Forecast


Current Version              Previous Versions:   1  2  3  4  5  6  7  8  9  

Terminal Aerodrome Forecast

854
FTUS44 KMOB 011133
TAFMOB
TAF
KMOB 011133Z 0112/0212 01006KT P6SM FEW012 SCT250
     FM012000 03008KT P6SM VCTS SCT050CB SCT250
     FM020100 VRB05KT P6SM FEW250=



Latest METAR

072
SAUS80 KWBC 012000 RRI
MTRMOB
METAR KMOB 011956Z 01009KT 10SM FEW045 SCT250 33/21 A2989 RMK AO2 SLP118
T03280206


USA.gov is the U.S. government's official web portal to all federal, state and local government web resources and services.